Terminal Aerodrome Forecast
Issued by NWS

Home | Current Version | Previous Version | Text Only | Print | Product List | Glossary Off
Versions: 1 2 3 4 5 6 7 8 9 10 11 12 13 14 15 16 17 18 19 20

000
FTUS43 KJKL 220500
TAFSME
TAF
KSME 220537Z 2206/2306 22003KT P6SM SCT120 BKN250
     FM220900 VRB03KT 3SM BR BKN250
     FM221300 25008KT P6SM BKN040
     FM222000 24007KT P6SM VCTS SCT050CB=

USA.gov is the U.S. government's official web portal to all federal, state and local government web resources and services.